Terminal Aerodrome Forecast
Issued by NWS

Home | Current Version | Previous Version | Text Only | Print | Product List | Glossary On
Versions: 1 2 3 4 5 6 7 8 9 10 11 12 13
182
FTUS44 KEPZ 100523
TAFTCS
TAF
KTCS 100523Z 1006/1106 30005KT P6SM SCT250
     FM101800 19009KT P6SM SCT250
     FM110300 30007KT P6SM SCT250=

USA.gov is the U.S. government's official web portal to all federal, state and local government web resources and services.